Aeroporto :







RITROVATECI SU...

 
LOGIN :

Iscrizione | Disclaimer

   EN    FR    IT 

 









Sommario :    VFR   VFR Marginale   IFR   IFR Intensivo   IFR Molto Intensivo
Visibilità : 
Base nubi : 
>= 8 km
>= 3000ft
5 / 8 km
1000 / 3000 ft
1500m / 5 km
500 / 1000 ft
800 / 1500m
200 / 500 ft
< 800m
< 200 ft
Simboli :   Temporali  Nebbia  Neve Forte  Precipitazioni Forti  Vento > 20 kt






- Altitudine del aeroporto : 95 ft
- Codice IATA : GEO


SYCJ - Cheddi Jagan Int.

ULTIMO METAR :
  • 011800Z 05012KT 9999 SCT020 31/22 Q1013 NOSIG

METARs OBSOLETI :
  • 011700Z 06010KT 9999 BKN020 31/22 Q1014 NOSIG
  • 011600Z 07010KT 030V110 9999 BKN020 32/22 Q1014 NOSIG

TAF TAF SYCJ
Valido dal 01 a 18 ore il 02 a 18 ore UTC


011700Z 0118/0218 07014KT 9999 BKN021
BECMG 0123/0201 06004KT 9999 FEW016
BECMG 0212/0214 05010KT 9999 SCT019
FIR SYGC / Sudamerica



MetMap, La meteo Aeronautica in un colpo d'occhio ! - Copyright ORBIFLY Dicembre 2007 - Disclaimer

ORBIFLY MET'MAP TEAM :

Programmazione e sviluppo : Alexandra Zaïnal
Concezione : Baudouin d'Aumeries
Aiuto per la programmazione : Marc-Olivier Méhu
Supporto tecnico e logistico : Manuel Goepfert
Aiuto per la traduzione : Arnaldo La Scala

Contatto : metmap@orbifly.com




FONTI E CREDITI :

   NOAA